Time;durP1;ratioP1;P1;durP2;ratioP2;P2;SDS_P1;SDS_P2;PMS_P1;PMS_P2;Temp;Humidity;BMP_temperature;BMP_pressure;BME280_temperature;BME280_humidity;BME280_pressure;Samples;Min_cycle;Max_cycle;Signal;HPM_P1;HPM_P2
2021/09/22 00:00:58;;;;;;;8.13;2.93;;;14.20;99.90;;;;;;4998916;28;20171;-78
2021/09/22 00:03:24;;;;;;;4.73;3.23;;;14.20;99.90;;;;;;4994678;28;20566;-78
2021/09/22 00:05:52;;;;;;;4.28;3.20;;;14.20;99.90;;;;;;4993706;28;20177;-78
2021/09/22 00:08:18;;;;;;;4.93;3.60;;;14.20;99.90;;;;;;4994011;28;20171;-77
2021/09/22 00:10:44;;;;;;;5.53;3.43;;;14.20;99.90;;;;;;4994708;28;21191;-78
2021/09/22 00:13:09;;;;;;;4.22;3.25;;;14.20;99.90;;;;;;4994627;28;20167;-78
2021/09/22 00:15:35;;;;;;;7.70;3.77;;;14.20;99.90;;;;;;4993376;28;20532;-79
2021/09/22 00:18:01;;;;;;;4.13;2.70;;;14.10;99.90;;;;;;4979549;28;20211;-79
2021/09/22 00:20:27;;;;;;;4.23;3.30;;;14.20;99.90;;;;;;4979546;28;20602;-79
2021/09/22 00:22:55;;;;;;;4.67;3.50;;;14.10;99.90;;;;;;4993508;28;20195;-79
2021/09/22 00:25:22;;;;;;;4.13;3.50;;;14.10;99.90;;;;;;4993218;28;20190;-79
2021/09/22 00:27:48;;;;;;;5.57;3.45;;;14.10;99.90;;;;;;4977076;28;20178;-79
2021/09/22 00:30:15;;;;;;;5.00;3.30;;;14.10;99.90;;;;;;4976487;28;20223;-79
2021/09/22 00:32:47;;;;;;;4.88;3.20;;;14.10;99.90;;;;;;4993002;28;20179;-79
2021/09/22 00:35:13;;;;;;;3.85;3.47;;;14.10;99.90;;;;;;4994146;28;20590;-78
2021/09/22 00:37:39;;;;;;;5.07;3.50;;;14.10;99.90;;;;;;4998416;28;20285;-78
2021/09/22 00:40:06;;;;;;;4.80;3.90;;;14.10;99.90;;;;;;4993776;28;20242;-77
2021/09/22 00:42:32;;;;;;;4.93;3.50;;;14.00;99.90;;;;;;4992658;28;20574;-78
2021/09/22 00:45:02;;;;;;;4.47;3.53;;;14.00;99.90;;;;;;4994137;28;20182;-78
2021/09/22 00:47:29;;;;;;;7.47;4.32;;;14.00;99.90;;;;;;4991374;28;20178;-78
2021/09/22 00:50:00;;;;;;;3.38;2.78;;;14.00;99.90;;;;;;4976654;28;20202;-78
2021/09/22 00:52:26;;;;;;;3.67;3.20;;;14.00;99.90;;;;;;4992532;28;20686;-78
2021/09/22 00:54:53;;;;;;;4.80;3.80;;;13.90;99.90;;;;;;4992594;28;20175;-78
2021/09/22 00:57:20;;;;;;;5.88;3.92;;;13.90;99.90;;;;;;4993513;28;20210;-78
2021/09/22 00:59:46;;;;;;;6.40;3.72;;;13.90;99.90;;;;;;4992105;28;20190;-78
2021/09/22 01:02:12;;;;;;;4.72;4.00;;;13.90;99.90;;;;;;4976135;28;20234;-78
2021/09/22 01:04:39;;;;;;;4.60;3.67;;;13.90;99.90;;;;;;4992253;28;20167;-78
2021/09/22 01:07:06;;;;;;;5.40;3.88;;;13.80;99.90;;;;;;4992377;28;20171;-77
2021/09/22 01:09:32;;;;;;;4.57;3.75;;;13.90;99.90;;;;;;4993118;28;20564;-78
2021/09/22 01:11:58;;;;;;;5.07;3.45;;;13.80;99.90;;;;;;4993729;28;20561;-77
2021/09/22 01:14:25;;;;;;;4.30;3.37;;;13.80;99.90;;;;;;4964779;28;20179;-79
2021/09/22 01:16:52;;;;;;;3.90;3.50;;;13.80;99.90;;;;;;4992257;28;20203;-78
2021/09/22 01:19:20;;;;;;;4.68;3.83;;;13.70;99.90;;;;;;4991672;28;20732;-78
2021/09/22 01:21:49;;;;;;;3.53;3.22;;;13.70;99.90;;;;;;4992362;28;20205;-78
2021/09/22 01:24:15;;;;;;;4.95;3.25;;;13.70;99.90;;;;;;4992035;28;20179;-79
2021/09/22 01:26:41;;;;;;;5.45;3.80;;;13.70;99.90;;;;;;4991986;28;20176;-79
2021/09/22 01:29:10;;;;;;;5.32;3.90;;;13.60;99.90;;;;;;4991463;28;20201;-78
2021/09/22 01:31:39;;;;;;;4.65;3.50;;;13.60;99.90;;;;;;4992009;28;20171;-79
2021/09/22 01:34:08;;;;;;;6.20;4.40;;;13.70;99.90;;;;;;4991789;28;20593;-79
2021/09/22 01:36:54;;;;;;;4.63;4.15;;;13.60;99.90;;;;;;4992901;28;20227;-79
2021/09/22 01:39:20;;;;;;;4.80;3.55;;;13.70;99.90;;;;;;4991031;28;20187;-78
2021/09/22 01:41:46;;;;;;;4.88;3.13;;;13.60;99.90;;;;;;4991639;28;20175;-79
2021/09/22 01:44:13;;;;;;;4.72;3.28;;;13.60;99.90;;;;;;4991491;28;20778;-79
2021/09/22 01:47:01;;;;;;;4.30;3.80;;;13.60;99.90;;;;;;4992777;28;20183;-78
2021/09/22 01:49:58;;;;;;;6.32;3.85;;;13.60;99.90;;;;;;4979453;28;20257;-78
2021/09/22 01:52:24;;;;;;;6.18;3.88;;;13.50;99.90;;;;;;4977985;28;20271;-78
2021/09/22 01:55:03;;;;;;;5.13;4.10;;;13.50;99.90;;;;;;4956049;28;20203;-78
2021/09/22 01:57:29;;;;;;;5.90;4.47;;;13.50;99.90;;;;;;4971835;28;20203;-78
2021/09/22 01:59:55;;;;;;;4.15;3.78;;;13.40;99.90;;;;;;4939606;28;20195;-78
2021/09/22 02:02:44;;;;;;;5.25;4.00;;;13.40;99.90;;;;;;4973239;28;20308;-78
2021/09/22 02:05:24;;;;;;;5.28;3.97;;;13.40;99.90;;;;;;4941520;28;20171;-78
2021/09/22 02:08:03;;;;;;;4.93;4.43;;;13.30;99.90;;;;;;4955860;28;20652;-78
2021/09/22 02:10:30;;;;;;;4.18;3.75;;;13.30;99.90;;;;;;4971741;28;20200;-78
2021/09/22 02:12:55;;;;;;;4.50;3.55;;;13.30;99.90;;;;;;4954339;28;20595;-78
2021/09/22 02:15:22;;;;;;;5.00;4.05;;;13.20;99.90;;;;;;4955571;28;20238;-78
2021/09/22 02:18:20;;;;;;;4.72;4.13;;;13.20;99.90;;;;;;4971743;28;20699;-78
2021/09/22 02:20:49;;;;;;;5.32;4.65;;;13.20;99.90;;;;;;4955702;28;20266;-78
2021/09/22 02:23:24;;;;;;;7.90;4.25;;;13.10;99.90;;;;;;4955570;28;20179;-78
2021/09/22 02:25:53;;;;;;;5.43;4.93;;;13.10;99.90;;;;;;4972090;28;20258;-79
2021/09/22 02:28:21;;;;;;;5.55;3.92;;;13.10;99.90;;;;;;4960858;28;20529;-78
2021/09/22 02:30:47;;;;;;;5.60;5.03;;;13.00;99.90;;;;;;4955792;28;20226;-78
2021/09/22 02:33:14;;;;;;;4.70;4.15;;;13.00;99.90;;;;;;4955574;28;20175;-79
2021/09/22 02:35:41;;;;;;;5.00;4.30;;;12.90;99.90;;;;;;4955366;28;20310;-78
2021/09/22 02:38:25;;;;;;;5.97;4.32;;;12.90;99.90;;;;;;4954966;28;20203;-78
2021/09/22 02:40:51;;;;;;;5.22;4.50;;;12.90;99.90;;;;;;4955326;28;20179;-78
2021/09/22 02:43:22;;;;;;;5.40;4.75;;;12.80;99.90;;;;;;4956135;28;20180;-78
2021/09/22 02:45:49;;;;;;;5.15;4.10;;;12.90;99.90;;;;;;4971622;28;20576;-78
2021/09/22 02:48:15;;;;;;;6.50;4.35;;;12.80;99.90;;;;;;4971887;28;20281;-78
2021/09/22 02:50:43;;;;;;;5.00;4.00;;;12.80;99.90;;;;;;4955884;28;20226;-79
2021/09/22 02:53:10;;;;;;;6.90;4.45;;;12.80;99.90;;;;;;4939751;28;20172;-80
2021/09/22 02:55:36;;;;;;;5.27;4.20;;;12.80;99.90;;;;;;4955478;28;20175;-80
2021/09/22 02:58:02;;;;;;;5.03;4.40;;;12.80;99.90;;;;;;4955179;28;20277;-80
2021/09/22 03:00:30;;;;;;;7.22;5.55;;;12.80;99.90;;;;;;4971304;28;20238;-80
2021/09/22 03:02:57;;;;;;;7.00;4.90;;;12.80;99.90;;;;;;4956170;28;20190;-80
2021/09/22 03:05:23;;;;;;;6.03;4.13;;;12.70;99.90;;;;;;4960347;28;20176;-80
2021/09/22 03:07:49;;;;;;;6.97;4.17;;;12.70;99.90;;;;;;4972594;28;20206;-80
2021/09/22 03:10:14;;;;;;;4.97;4.57;;;12.70;99.90;;;;;;4956977;28;20670;-81
2021/09/22 03:12:41;;;;;;;5.07;4.57;;;12.60;99.90;;;;;;4959328;28;20182;-81
2021/09/22 03:15:07;;;;;;;4.23;3.70;;;12.70;99.90;;;;;;4958758;28;20176;-82
2021/09/22 03:17:33;;;;;;;5.90;5.05;;;12.70;99.90;;;;;;4958836;28;20216;-81
2021/09/22 03:19:59;;;;;;;5.77;4.90;;;12.60;99.90;;;;;;4958347;28;20588;-81
2021/09/22 03:22:25;;;;;;;5.80;4.32;;;12.60;99.90;;;;;;4943221;28;20179;-82
2021/09/22 03:25:10;;;;;;;5.25;4.60;;;12.60;99.90;;;;;;4946432;28;20241;-81
2021/09/22 03:27:36;;;;;;;7.03;4.47;;;12.60;99.90;;;;;;4962577;28;20168;-81
2021/09/22 03:30:07;;;;;;;5.15;4.38;;;12.60;99.90;;;;;;4962577;28;20253;-81
2021/09/22 03:32:37;;;;;;;6.57;4.40;;;12.60;99.90;;;;;;4958641;28;20182;-82
2021/09/22 03:35:04;;;;;;;7.65;5.13;;;12.60;99.90;;;;;;4974852;28;20561;-79
2021/09/22 03:37:30;;;;;;;4.60;4.20;;;12.60;99.90;;;;;;4974646;28;20211;-81
2021/09/22 03:39:56;;;;;;;5.47;4.03;;;12.60;99.90;;;;;;4958460;28;20192;-81
2021/09/22 03:42:22;;;;;;;7.38;4.57;;;12.60;99.90;;;;;;4963511;28;20171;-80
2021/09/22 03:44:48;;;;;;;7.60;4.70;;;12.60;99.90;;;;;;4958649;28;20206;-80
2021/09/22 03:47:14;;;;;;;6.57;5.03;;;12.60;99.90;;;;;;4942312;28;20211;-80
2021/09/22 03:49:40;;;;;;;7.68;4.97;;;12.60;99.90;;;;;;4973731;28;20294;-81
2021/09/22 03:52:22;;;;;;;5.20;4.57;;;12.50;99.90;;;;;;4944454;28;20186;-82
2021/09/22 03:54:48;;;;;;;6.10;4.73;;;12.50;99.90;;;;;;4975404;28;20171;-81
2021/09/22 03:57:13;;;;;;;6.93;4.40;;;12.50;99.90;;;;;;4957895;28;20687;-80
2021/09/22 03:59:40;;;;;;;6.60;4.50;;;12.50;99.90;;;;;;4941779;28;20191;-81
2021/09/22 04:02:08;;;;;;;6.03;5.30;;;12.50;99.90;;;;;;4957916;28;20203;-80
2021/09/22 04:04:35;;;;;;;6.47;5.60;;;12.50;99.90;;;;;;4942029;28;20606;-81
2021/09/22 04:07:01;;;;;;;5.97;4.97;;;12.40;99.90;;;;;;4942266;28;20334;-81
2021/09/22 04:09:27;;;;;;;5.60;4.67;;;12.40;99.90;;;;;;4956115;28;20329;-81
2021/09/22 04:11:53;;;;;;;4.50;4.10;;;12.40;99.90;;;;;;4974456;28;20258;-81
2021/09/22 04:14:19;;;;;;;5.63;4.68;;;12.40;99.90;;;;;;4957186;28;20176;-80
2021/09/22 04:16:44;;;;;;;4.97;4.20;;;12.40;99.90;;;;;;4957035;28;20523;-81
2021/09/22 04:19:11;;;;;;;6.57;5.15;;;12.40;99.90;;;;;;4962223;28;20194;-81
2021/09/22 04:21:37;;;;;;;8.10;5.28;;;12.40;99.90;;;;;;4957194;28;20578;-81
2021/09/22 04:24:04;;;;;;;5.97;4.80;;;12.40;99.90;;;;;;4957538;28;20172;-81
2021/09/22 04:26:30;;;;;;;4.97;4.32;;;12.40;99.90;;;;;;4957700;28;20606;-81
2021/09/22 04:29:01;;;;;;;5.03;4.53;;;12.40;99.90;;;;;;4957081;28;20258;-81
2021/09/22 04:31:45;;;;;;;5.15;3.70;;;12.50;99.90;;;;;;4974918;28;20199;-81
2021/09/22 04:34:30;;;;;;;6.25;4.88;;;12.50;99.90;;;;;;4943887;28;20190;-80
2021/09/22 04:37:16;;;;;;;5.32;4.80;;;12.40;99.90;;;;;;4959609;28;20226;-81
2021/09/22 04:40:20;;;;;;;5.10;4.32;;;12.40;99.90;;;;;;4914407;29;20193;-80
2021/09/22 04:43:04;;;;;;;7.03;4.95;;;12.40;99.90;;;;;;4915026;29;20180;-81
2021/09/22 04:45:51;;;;;;;5.85;4.93;;;12.40;99.90;;;;;;4950190;28;20194;-81
2021/09/22 04:48:39;;;;;;;7.22;4.97;;;12.30;99.90;;;;;;4974108;28;20223;-82
2021/09/22 04:51:23;;;;;;;8.02;5.05;;;12.30;99.90;;;;;;4959947;28;20172;-79
2021/09/22 04:54:08;;;;;;;7.05;4.65;;;12.30;99.90;;;;;;4957533;28;20191;-80
2021/09/22 04:57:06;;;;;;;5.82;4.22;;;12.30;99.90;;;;;;4943457;28;20302;-80
2021/09/22 04:59:51;;;;;;;6.70;4.95;;;12.30;99.90;;;;;;4956597;28;20199;-79
2021/09/22 05:02:36;;;;;;;4.28;3.88;;;12.30;99.90;;;;;;4974688;28;20167;-80
2021/09/22 05:05:20;;;;;;;5.53;5.03;;;12.30;99.90;;;;;;4981807;28;20628;-81
2021/09/22 05:08:04;;;;;;;5.50;4.22;;;12.30;99.90;;;;;;4974228;28;20168;-81
2021/09/22 05:10:49;;;;;;;5.85;4.78;;;12.30;99.90;;;;;;4974369;28;20175;-80
2021/09/22 05:13:33;;;;;;;5.85;5.10;;;12.30;99.90;;;;;;4974512;28;20255;-81
2021/09/22 05:16:18;;;;;;;5.65;4.72;;;12.20;99.90;;;;;;4959382;28;20175;-81
2021/09/22 05:19:02;;;;;;;6.03;4.90;;;12.20;99.90;;;;;;4973815;28;20214;-80
2021/09/22 05:21:47;;;;;;;6.38;5.47;;;12.20;99.90;;;;;;4974219;28;20175;-80
2021/09/22 05:24:32;;;;;;;5.40;4.90;;;12.20;99.90;;;;;;4974244;28;20179;-81
2021/09/22 05:27:16;;;;;;;5.93;5.32;;;12.20;99.90;;;;;;4974259;28;20171;-80
2021/09/22 05:30:01;;;;;;;6.07;4.80;;;12.20;99.90;;;;;;4973530;28;20194;-80
2021/09/22 05:32:45;;;;;;;5.93;4.80;;;12.20;99.90;;;;;;4978551;28;20266;-80
2021/09/22 05:35:29;;;;;;;8.85;3.95;;;12.20;99.90;;;;;;4973631;28;20271;-81
2021/09/22 05:38:15;;;;;;;7.80;4.35;;;12.20;99.90;;;;;;4973326;28;20565;-80
2021/09/22 05:40:59;;;;;;;5.38;4.88;;;12.20;99.90;;;;;;4958925;28;20171;-81
2021/09/22 05:43:43;;;;;;;5.95;5.10;;;12.20;99.90;;;;;;4973719;28;20171;-80
2021/09/22 05:46:27;;;;;;;8.38;4.30;;;12.20;99.90;;;;;;4973681;28;20171;-80
2021/09/22 05:49:12;;;;;;;8.45;5.88;;;12.20;99.90;;;;;;4973088;28;20265;-81
2021/09/22 05:52:04;;;;;;;4.28;3.88;;;12.20;99.90;;;;;;4959287;28;20186;-84
2021/09/22 05:54:50;;;;;;;6.60;5.00;;;12.30;99.90;;;;;;4965880;28;20266;-84
2021/09/22 05:57:34;;;;;;;5.88;5.32;;;12.30;99.90;;;;;;4980187;28;20206;-86
2021/09/22 06:00:18;;;;;;;8.25;4.57;;;12.40;99.90;;;;;;4946274;28;20199;-85
2021/09/22 06:03:10;;;;;;;5.88;5.00;;;12.40;99.90;;;;;;4978664;28;20163;-84
2021/09/22 06:05:59;;;;;;;5.82;4.80;;;12.40;99.90;;;;;;4959828;28;20186;-86
2021/09/22 06:08:48;;;;;;;6.22;5.00;;;12.40;99.90;;;;;;4963898;28;20255;-85
2021/09/22 06:11:18;;;;;;;5.95;5.35;;;12.40;99.90;;;;;;4942075;28;20714;-86
2021/09/22 06:14:03;;;;;;;9.18;5.18;;;12.40;99.90;;;;;;4956902;28;20183;-86
2021/09/22 06:16:29;;;;;;;5.80;5.15;;;12.40;99.90;;;;;;4974733;28;20163;-86
2021/09/22 06:19:06;;;;;;;6.35;5.18;;;12.40;99.90;;;;;;4941946;28;20195;-85
2021/09/22 06:21:32;;;;;;;6.43;4.93;;;12.50;99.90;;;;;;4940366;28;20233;-85
2021/09/22 06:23:58;;;;;;;5.03;4.50;;;12.60;99.90;;;;;;4938750;28;20175;-85
2021/09/22 06:26:25;;;;;;;5.80;4.10;;;12.60;99.90;;;;;;4939679;28;20171;-83
2021/09/22 06:28:51;;;;;;;6.50;4.43;;;12.80;99.90;;;;;;4955616;28;20701;-84
2021/09/22 06:31:18;;;;;;;7.63;5.30;;;12.80;99.90;;;;;;4940845;28;21158;-86
2021/09/22 06:33:49;;;;;;;3.83;3.30;;;12.90;99.90;;;;;;4941327;28;20715;-86
2021/09/22 06:36:23;;;;;;;7.03;5.03;;;12.90;99.90;;;;;;4963697;28;20218;-83
2021/09/22 06:38:49;;;;;;;4.27;3.87;;;13.00;99.90;;;;;;4955531;28;20227;-86
2021/09/22 06:41:15;;;;;;;5.63;4.90;;;13.00;99.90;;;;;;4956222;28;20551;-86
2021/09/22 06:43:43;;;;;;;6.88;5.65;;;13.10;99.90;;;;;;4923805;28;20175;-88
2021/09/22 06:46:09;;;;;;;5.13;4.10;;;13.10;99.90;;;;;;4964549;28;20172;-88
2021/09/22 06:48:36;;;;;;;5.90;4.63;;;13.20;99.90;;;;;;4960807;28;20230;-88
2021/09/22 06:51:02;;;;;;;9.70;4.70;;;13.30;99.90;;;;;;4978281;28;21049;-88
2021/09/22 06:53:27;;;;;;;5.00;4.47;;;13.40;99.90;;;;;;4978254;28;20273;-87
2021/09/22 06:55:53;;;;;;;9.37;5.67;;;13.40;99.90;;;;;;4961216;28;20997;-88
2021/09/22 06:58:19;;;;;;;6.70;4.60;;;13.50;99.90;;;;;;4929154;28;20257;-87
2021/09/22 07:00:47;;;;;;;11.10;6.07;;;13.50;99.90;;;;;;4961327;28;20227;-85
2021/09/22 07:03:14;;;;;;;6.40;5.50;;;13.50;99.90;;;;;;4977538;28;20259;-85
2021/09/22 07:05:43;;;;;;;5.68;5.13;;;13.60;99.90;;;;;;4960743;28;20175;-85
2021/09/22 07:08:09;;;;;;;8.75;5.65;;;13.70;99.90;;;;;;4948102;28;20536;-85
2021/09/22 07:10:37;;;;;;;6.97;5.20;;;13.80;99.90;;;;;;4963275;28;20227;-86
2021/09/22 07:13:04;;;;;;;7.10;4.82;;;14.00;99.90;;;;;;4976169;28;20187;-86
2021/09/22 07:15:30;;;;;;;5.40;4.85;;;14.20;99.90;;;;;;4975130;28;20168;-87
2021/09/22 07:17:56;;;;;;;6.27;4.67;;;14.40;99.90;;;;;;4974723;28;20334;-86
2021/09/22 07:20:22;;;;;;;7.43;4.77;;;14.50;99.90;;;;;;4974701;28;20599;-86
2021/09/22 07:22:47;;;;;;;6.83;5.60;;;14.80;99.90;;;;;;4973970;28;20583;-85
2021/09/22 07:25:13;;;;;;;7.97;4.83;;;15.10;99.90;;;;;;4962406;28;20168;-86
2021/09/22 07:27:39;;;;;;;9.27;4.70;;;15.40;99.90;;;;;;4942673;28;20239;-83
2021/09/22 07:30:13;;;;;;;7.73;5.17;;;15.60;99.90;;;;;;4975971;28;20230;-81
2021/09/22 07:32:39;;;;;;;7.00;4.53;;;15.90;99.90;;;;;;4956864;28;20590;-81
2021/09/22 07:35:05;;;;;;;11.33;5.03;;;16.10;99.90;;;;;;4974826;28;20654;-83
2021/09/22 07:37:33;;;;;;;7.00;4.60;;;16.20;99.90;;;;;;4975978;28;20713;-84
2021/09/22 07:39:59;;;;;;;5.67;4.67;;;16.40;99.90;;;;;;4942069;28;20607;-83
2021/09/22 07:42:24;;;;;;;7.13;5.73;;;16.60;99.90;;;;;;4975767;28;20621;-84
2021/09/22 07:44:53;;;;;;;5.40;4.90;;;16.80;99.90;;;;;;4976134;28;20176;-84
2021/09/22 07:47:20;;;;;;;7.47;5.33;;;17.30;99.90;;;;;;4975991;28;20180;-84
2021/09/22 07:49:46;;;;;;;9.03;5.47;;;17.70;99.90;;;;;;4974727;28;21049;-84
2021/09/22 07:52:12;;;;;;;6.33;5.63;;;18.20;99.90;;;;;;4977025;28;20622;-84
2021/09/22 07:54:39;;;;;;;4.67;4.27;;;18.80;99.90;;;;;;4975000;28;20175;-84
2021/09/22 07:57:07;;;;;;;5.43;4.57;;;19.30;99.90;;;;;;4975220;28;20981;-84
2021/09/22 07:59:33;;;;;;;6.17;5.30;;;19.80;99.90;;;;;;4965383;28;20594;-84
2021/09/22 08:01:59;;;;;;;5.73;4.27;;;20.20;99.90;;;;;;4980397;28;20670;-85
2021/09/22 08:04:25;;;;;;;5.93;4.73;;;20.70;99.90;;;;;;4978751;28;20599;-81
2021/09/22 08:06:51;;;;;;;5.30;4.80;;;21.10;99.90;;;;;;4976486;28;20599;-81
2021/09/22 08:09:17;;;;;;;6.70;5.63;;;21.30;99.90;;;;;;4957694;28;20594;-83
2021/09/22 08:11:44;;;;;;;6.23;5.20;;;21.50;99.90;;;;;;4958400;28;20195;-83
2021/09/22 08:14:13;;;;;;;7.77;5.63;;;21.60;99.90;;;;;;4975947;28;20642;-84
2021/09/22 08:16:38;;;;;;;6.63;5.37;;;21.70;99.90;;;;;;4979176;28;20602;-83
2021/09/22 08:19:04;;;;;;;6.23;5.30;;;22.00;99.90;;;;;;4980689;28;20611;-85
2021/09/22 08:21:30;;;;;;;6.50;5.33;;;22.30;99.90;;;;;;4980430;28;20256;-84
2021/09/22 08:23:55;;;;;;;4.83;4.43;;;22.70;99.90;;;;;;4971024;28;20211;-84
2021/09/22 08:26:22;;;;;;;7.00;5.57;;;23.20;99.90;;;;;;4981235;28;20203;-85
2021/09/22 08:28:47;;;;;;;7.00;5.57;;;23.60;99.90;;;;;;4981549;28;20202;-84
2021/09/22 08:31:13;;;;;;;8.00;6.20;;;24.20;99.90;;;;;;4962466;28;20584;-83
2021/09/22 08:33:39;;;;;;;8.10;5.50;;;24.80;99.90;;;;;;4957831;28;20178;-84
2021/09/22 08:36:08;;;;;;;8.27;4.83;;;24.90;99.90;;;;;;4977397;28;20258;-83
2021/09/22 08:38:34;;;;;;;6.00;5.10;;;24.70;99.90;;;;;;4958293;28;20676;-82
2021/09/22 08:41:00;;;;;;;6.07;5.47;;;24.70;99.70;;;;;;4979523;28;20622;-81
2021/09/22 08:43:28;;;;;;;6.17;5.20;;;24.60;99.10;;;;;;4981909;28;20575;-83
2021/09/22 08:45:55;;;;;;;8.30;5.10;;;24.50;98.50;;;;;;4964012;28;20579;-83
2021/09/22 08:48:24;;;;;;;7.37;5.87;;;24.70;98.60;;;;;;4974631;28;20662;-83
2021/09/22 08:50:50;;;;;;;6.23;4.70;;;24.70;98.40;;;;;;5022588;22;20660;-77
2021/09/22 08:53:16;;;;;;;6.17;5.03;;;24.90;98.20;;;;;;5014212;28;20604;-77
2021/09/22 08:55:41;;;;;;;6.40;5.67;;;25.20;98.10;;;;;;5014826;28;20573;-75
2021/09/22 08:58:07;;;;;;;8.03;5.90;;;25.40;97.80;;;;;;4995438;28;20597;-77
2021/09/22 09:00:33;;;;;;;10.57;6.47;;;25.70;97.30;;;;;;5012801;28;20551;-77
2021/09/22 09:02:59;;;;;;;6.40;5.70;;;25.80;96.40;;;;;;5013163;28;20163;-77
2021/09/22 09:05:25;;;;;;;7.73;5.37;;;26.00;96.00;;;;;;5012742;28;20584;-77
2021/09/22 09:07:55;;;;;;;8.97;5.70;;;26.10;95.60;;;;;;5012446;28;20237;-77
2021/09/22 09:10:34;;;;;;;6.40;5.57;;;26.30;95.30;;;;;;5012426;28;20190;-76
2021/09/22 09:13:02;;;;;;;5.90;5.40;;;26.40;94.00;;;;;;4979399;28;20603;-77
2021/09/22 09:15:32;;;;;;;10.33;6.00;;;26.50;93.60;;;;;;4962936;28;21105;-77
2021/09/22 09:18:00;;;;;;;5.90;5.33;;;26.60;93.30;;;;;;5013054;28;20731;-76
2021/09/22 09:20:28;;;;;;;7.00;5.87;;;26.70;93.10;;;;;;4978324;28;21238;-76
2021/09/22 09:23:06;;;;;;;8.53;6.07;;;27.00;93.10;;;;;;5012915;28;20574;-76
2021/09/22 09:25:37;;;;;;;9.43;6.17;;;27.40;92.40;;;;;;5012424;28;20583;-77
2021/09/22 09:28:23;;;;;;;5.63;5.00;;;27.50;92.10;;;;;;4995557;28;20925;-77
2021/09/22 09:30:53;;;;;;;8.80;6.30;;;27.80;91.50;;;;;;4995421;28;20720;-77
2021/09/22 09:33:39;;;;;;;9.13;5.93;;;28.00;90.40;;;;;;5012484;28;20597;-77
2021/09/22 09:36:15;;;;;;;5.93;5.37;;;28.20;90.40;;;;;;4994768;28;20627;-76
2021/09/22 09:38:52;;;;;;;7.17;6.50;;;28.50;88.70;;;;;;5011963;28;20620;-77
2021/09/22 09:41:37;;;;;;;6.97;5.83;;;28.80;87.40;;;;;;5012321;28;20903;-77
2021/09/22 09:44:07;;;;;;;8.93;5.70;;;29.10;84.80;;;;;;4994795;28;20568;-77
2021/09/22 09:46:34;;;;;;;9.53;5.80;;;29.40;85.10;;;;;;5012558;28;20569;-75
2021/09/22 09:49:01;;;;;;;7.77;4.87;;;29.60;84.20;;;;;;5011833;28;20973;-76
2021/09/22 09:51:41;;;;;;;9.17;6.13;;;29.90;83.20;;;;;;5012249;28;20573;-76
2021/09/22 09:54:28;;;;;;;10.20;7.27;;;30.20;81.30;;;;;;4994368;28;21159;-76
2021/09/22 09:56:57;;;;;;;6.57;5.40;;;30.50;80.70;;;;;;5012043;28;20613;-76
2021/09/22 09:59:24;;;;;;;5.80;5.20;;;30.60;76.70;;;;;;5011628;28;20687;-76
2021/09/22 10:01:55;;;;;;;6.50;5.30;;;30.60;76.60;;;;;;4994583;28;20593;-76
2021/09/22 10:04:23;;;;;;;6.13;5.53;;;30.90;76.60;;;;;;4994303;28;20797;-76
2021/09/22 10:06:50;;;;;;;6.20;5.60;;;31.20;74.70;;;;;;5012383;28;20657;-76
2021/09/22 10:09:17;;;;;;;5.30;4.80;;;31.40;73.30;;;;;;4996006;28;20611;-76
2021/09/22 10:11:45;;;;;;;5.37;4.73;;;31.70;72.80;;;;;;5012114;28;20606;-77
2021/09/22 10:14:13;;;;;;;7.50;5.60;;;32.00;70.50;;;;;;4994128;28;20951;-77
2021/09/22 10:16:41;;;;;;;6.07;5.47;;;32.30;69.50;;;;;;5011888;28;20723;-77
2021/09/22 10:19:07;;;;;;;6.20;4.83;;;32.40;66.50;;;;;;5010963;28;20705;-77
2021/09/22 10:21:37;;;;;;;7.53;4.90;;;32.40;66.00;;;;;;5011908;28;20964;-78
2021/09/22 10:24:07;;;;;;;5.40;4.80;;;32.50;65.70;;;;;;4994429;28;20579;-77
2021/09/22 10:26:34;;;;;;;5.57;4.60;;;32.60;64.60;;;;;;5011695;28;20590;-77
2021/09/22 10:29:24;;;;;;;5.87;5.03;;;32.70;64.30;;;;;;5011228;28;20593;-77
2021/09/22 10:31:50;;;;;;;5.10;4.20;;;32.70;64.00;;;;;;5011686;28;20573;-76
2021/09/22 10:34:30;;;;;;;8.87;5.53;;;32.50;61.30;;;;;;4994214;28;20591;-77
2021/09/22 10:36:56;;;;;;;8.57;5.53;;;32.40;59.50;;;;;;5011681;28;21097;-77
2021/09/22 10:39:40;;;;;;;5.80;4.83;;;32.10;58.70;;;;;;5011091;28;20594;-77
2021/09/22 10:42:29;;;;;;;7.10;4.70;;;31.80;58.10;;;;;;4993934;28;20945;-78
2021/09/22 10:45:17;;;;;;;5.80;5.13;;;31.70;58.40;;;;;;5012271;28;20625;-77
2021/09/22 10:47:43;;;;;;;5.67;4.67;;;31.80;58.60;;;;;;4993778;28;21395;-78
2021/09/22 10:50:13;;;;;;;5.40;4.90;;;32.00;59.10;;;;;;5011184;28;20611;-75
2021/09/22 10:52:41;;;;;;;5.60;4.80;;;32.20;59.10;;;;;;5011068;28;20591;-76
2021/09/22 10:55:15;;;;;;;5.53;4.93;;;32.50;58.60;;;;;;5011141;28;20934;-79
2021/09/22 10:57:44;;;;;;;6.63;4.13;;;32.70;57.70;;;;;;5010587;28;20635;-79
2021/09/22 11:00:19;;;;;;;4.80;4.30;;;32.80;57.50;;;;;;4993596;28;21046;-79
2021/09/22 11:02:49;;;;;;;5.73;4.07;;;32.80;57.00;;;;;;5011374;28;21085;-80
2021/09/22 11:05:35;;;;;;;5.17;4.67;;;32.90;56.80;;;;;;5010194;28;20638;-79
2021/09/22 11:08:03;;;;;;;5.73;3.70;;;32.80;56.20;;;;;;5011088;28;21456;-79
2021/09/22 11:10:42;;;;;;;5.10;4.17;;;32.80;55.80;;;;;;5010686;28;20999;-78
2021/09/22 11:13:21;;;;;;;7.33;5.57;;;32.70;55.40;;;;;;5010852;28;20634;-78
2021/09/22 11:15:51;;;;;;;7.93;5.60;;;32.70;55.30;;;;;;5011190;28;20580;-78
2021/09/22 11:18:18;;;;;;;7.57;5.17;;;32.60;54.90;;;;;;5010680;28;20748;-79
2021/09/22 11:20:56;;;;;;;5.30;4.90;;;32.50;54.70;;;;;;5012671;28;20623;-78
2021/09/22 11:23:24;;;;;;;5.37;4.87;;;32.30;54.00;;;;;;4994212;28;20582;-77
2021/09/22 11:25:50;;;;;;;5.93;5.43;;;32.20;54.30;;;;;;5011153;28;20700;-77
2021/09/22 11:28:16;;;;;;;6.23;5.33;;;32.00;54.00;;;;;;4992865;28;20644;-77
2021/09/22 11:30:44;;;;;;;5.73;5.23;;;31.80;53.90;;;;;;4994381;28;20705;-78
2021/09/22 11:33:20;;;;;;;5.27;4.87;;;31.70;53.80;;;;;;5013604;28;21128;-78
2021/09/22 11:35:46;;;;;;;6.83;4.17;;;31.60;53.40;;;;;;5014511;28;20565;-77
2021/09/22 11:38:12;;;;;;;6.47;5.90;;;31.50;53.40;;;;;;4996562;28;20656;-79
2021/09/22 11:40:39;;;;;;;6.30;5.47;;;31.40;53.40;;;;;;5013938;28;20186;-78
2021/09/22 11:43:10;;;;;;;6.40;5.80;;;31.20;53.00;;;;;;5014480;28;20573;-77
2021/09/22 11:45:40;;;;;;;7.70;4.87;;;31.00;53.40;;;;;;4996706;28;21191;-78
2021/09/22 11:48:08;;;;;;;5.60;5.10;;;30.70;52.40;;;;;;5014327;28;21000;-77
2021/09/22 11:50:37;;;;;;;6.73;5.37;;;30.10;52.00;;;;;;5012657;28;20617;-77
2021/09/22 11:53:13;;;;;;;6.13;5.53;;;29.70;52.40;;;;;;5012808;28;20588;-79
2021/09/22 11:55:40;;;;;;;8.17;6.43;;;29.40;52.60;;;;;;5013923;28;20928;-77
2021/09/22 11:58:11;;;;;;;6.77;5.13;;;29.20;52.80;;;;;;5014871;28;20707;-80
2021/09/22 12:00:39;;;;;;;5.97;5.10;;;28.90;53.20;;;;;;5014477;28;20676;-78
2021/09/22 12:03:15;;;;;;;6.73;5.60;;;28.90;53.70;;;;;;5014009;28;20569;-77
2021/09/22 12:05:43;;;;;;;6.40;5.80;;;28.80;53.60;;;;;;5014143;28;20565;-77
2021/09/22 12:08:11;;;;;;;5.83;5.30;;;28.60;53.90;;;;;;4996072;28;20672;-77
2021/09/22 12:10:45;;;;;;;7.80;6.00;;;28.50;54.10;;;;;;5013972;28;20588;-79
2021/09/22 12:13:11;;;;;;;5.90;5.00;;;28.50;54.30;;;;;;4997662;28;20568;-79
2021/09/22 12:15:37;;;;;;;8.30;6.03;;;28.50;54.70;;;;;;5015957;28;20592;-80
2021/09/22 12:18:03;;;;;;;8.50;6.10;;;28.50;54.50;;;;;;4997743;28;20627;-77
2021/09/22 12:20:30;;;;;;;6.27;5.67;;;28.30;54.10;;;;;;5016619;28;20935;-79
2021/09/22 12:23:02;;;;;;;7.50;6.10;;;28.20;54.20;;;;;;5002115;28;20294;-81
2021/09/22 12:25:29;;;;;;;6.80;6.20;;;28.10;54.10;;;;;;5015019;28;20676;-80
2021/09/22 12:27:55;;;;;;;6.00;5.43;;;28.00;54.10;;;;;;5014999;28;20722;-79
2021/09/22 12:30:37;;;;;;;5.37;4.80;;;27.90;54.10;;;;;;5013550;28;20594;-78
2021/09/22 12:33:08;;;;;;;6.03;5.37;;;27.80;54.20;;;;;;5016890;28;21447;-79
2021/09/22 12:35:37;;;;;;;6.57;5.97;;;27.80;54.30;;;;;;5018054;28;20573;-76
2021/09/22 12:38:05;;;;;;;8.10;6.30;;;27.80;54.50;;;;;;5013708;28;20643;-76
2021/09/22 12:40:40;;;;;;;6.40;5.80;;;27.80;54.70;;;;;;5013198;28;20688;-76
2021/09/22 12:43:17;;;;;;;6.20;5.60;;;27.70;54.60;;;;;;5013530;28;20920;-75
2021/09/22 12:45:43;;;;;;;6.77;6.10;;;27.60;54.40;;;;;;4995873;28;20573;-75
2021/09/22 12:48:09;;;;;;;6.90;6.20;;;27.60;54.60;;;;;;5013194;28;20608;-76
2021/09/22 12:50:40;;;;;;;9.27;5.90;;;27.50;54.80;;;;;;5013042;28;20264;-77
2021/09/22 12:53:12;;;;;;;7.17;5.73;;;27.30;54.70;;;;;;5013137;28;20182;-76
2021/09/22 12:55:42;;;;;;;6.50;5.90;;;27.20;55.20;;;;;;5012814;28;20576;-77
2021/09/22 12:58:10;;;;;;;7.90;6.00;;;27.00;54.30;;;;;;5012792;28;21048;-77
2021/09/22 13:00:58;;;;;;;6.17;5.57;;;26.90;54.40;;;;;;5013011;28;20620;-77
2021/09/22 13:03:35;;;;;;;7.20;5.50;;;26.70;54.80;;;;;;4982105;28;20939;-76
2021/09/22 13:06:07;;;;;;;7.07;5.23;;;26.60;54.90;;;;;;4995428;28;20577;-77